Time;durP1;ratioP1;P1;durP2;ratioP2;P2;SDS_P1;SDS_P2;PMS_P1;PMS_P2;Temp;Humidity;BMP_temperature;BMP_pressure;BME280_temperature;BME280_humidity;BME280_pressure;Samples;Min_cycle;Max_cycle;Signal;HPM_P1;HPM_P2
2022/02/27 00:00:51;;;;;;;;;;;3.50;99.90;;;;;;8402924;28;19924;-70
2022/02/27 00:04:52;;;;;;;;;;;3.50;99.90;;;;;;8382447;28;19932;-70
2022/02/27 00:08:54;;;;;;;;;;;3.50;99.90;;;;;;8384332;28;20284;-70
2022/02/27 00:12:55;;;;;;;;;;;3.50;99.90;;;;;;8406029;28;19924;-70
2022/02/27 00:16:57;;;;;;;;;;;3.40;99.90;;;;;;8406329;28;19924;-70
2022/02/27 00:20:59;;;;;;;;;;;3.40;99.90;;;;;;8387232;28;19924;-70
2022/02/27 00:25:01;;;;;;;;;;;3.40;99.90;;;;;;8404245;28;19924;-70
2022/02/27 00:29:02;;;;;;;;;;;3.30;99.90;;;;;;8381619;28;19934;-70
2022/02/27 00:33:05;;;;;;;;;;;3.30;99.90;;;;;;8398548;28;19925;-70
2022/02/27 00:37:06;;;;;;;;;;;3.20;99.90;;;;;;8384649;28;20295;-71
2022/02/27 00:41:08;;;;;;;;;;;3.20;99.90;;;;;;8401656;28;19924;-70
2022/02/27 00:45:10;;;;;;;;;;;3.20;99.90;;;;;;8398583;28;20308;-70
2022/02/27 00:49:11;;;;;;;;;;;3.20;99.90;;;;;;8401887;28;20390;-70
2022/02/27 00:53:13;;;;;;;;;;;3.10;99.90;;;;;;8400265;28;19928;-70
2022/02/27 00:57:14;;;;;;;;;;;3.10;99.90;;;;;;8385566;28;20383;-70
2022/02/27 01:01:17;;;;;;;;;;;3.10;99.90;;;;;;8405679;28;19925;-70
2022/02/27 01:05:19;;;;;;;;;;;3.10;99.90;;;;;;8382577;28;20387;-70
2022/02/27 01:09:21;;;;;;;;;;;3.10;99.90;;;;;;8407205;28;19924;-70
2022/02/27 01:13:22;;;;;;;;;;;3.10;99.90;;;;;;8407404;28;19925;-70
2022/02/27 01:17:24;;;;;;;;;;;3.00;99.90;;;;;;8389963;28;19932;-70
2022/02/27 01:21:26;;;;;;;;;;;3.00;99.90;;;;;;8406241;28;19924;-70
2022/02/27 01:25:27;;;;;;;;;;;2.90;99.90;;;;;;8397243;28;19925;-70
2022/02/27 01:29:29;;;;;;;;;;;2.90;99.90;;;;;;8389996;28;19924;-70
2022/02/27 01:33:31;;;;;;;;;;;2.90;99.90;;;;;;8405775;28;19928;-70
2022/02/27 01:37:33;;;;;;;;;;;2.90;99.90;;;;;;8403692;28;19931;-70
2022/02/27 01:41:35;;;;;;;;;;;2.80;99.90;;;;;;8399998;28;20426;-70
2022/02/27 01:45:36;;;;;;;;;;;2.70;99.90;;;;;;8378469;28;20308;-70
2022/02/27 01:49:39;;;;;;;;;;;2.70;99.90;;;;;;8383991;28;19980;-70
2022/02/27 01:53:40;;;;;;;;;;;2.70;99.90;;;;;;8383479;28;19928;-70
2022/02/27 01:57:43;;;;;;;;;;;2.60;99.90;;;;;;8388021;28;19924;-70
2022/02/27 02:01:44;;;;;;;;;;;2.60;99.90;;;;;;8403256;28;20198;-70
2022/02/27 02:05:46;;;;;;;;;;;2.50;99.90;;;;;;8407316;28;20314;-70
2022/02/27 02:09:48;;;;;;;;;;;2.50;99.90;;;;;;8389278;28;20000;-70
2022/02/27 02:13:51;;;;;;;;;;;2.50;99.90;;;;;;8406848;28;20296;-70
2022/02/27 02:17:52;;;;;;;;;;;2.50;99.90;;;;;;8402727;28;19947;-70
2022/02/27 02:21:57;;;;;;;;;;;2.40;99.90;;;;;;8392531;28;19932;-70
2022/02/27 02:26:03;;;;;;;;;;;2.40;99.90;;;;;;8404155;28;20015;-70
2022/02/27 02:30:05;;;;;;;;;;;2.30;99.90;;;;;;8385608;28;20357;-70
2022/02/27 02:34:08;;;;;;;;;;;2.30;99.90;;;;;;8410825;28;19924;-70
2022/02/27 02:38:09;;;;;;;;;;;2.20;99.90;;;;;;8406501;28;19951;-70
2022/02/27 02:42:11;;;;;;;;;;;2.20;99.90;;;;;;8405446;28;19925;-70
2022/02/27 02:46:13;;;;;;;;;;;2.20;99.90;;;;;;8380624;28;19936;-70
2022/02/27 02:50:15;;;;;;;;;;;2.20;99.90;;;;;;8409736;28;19924;-70
2022/02/27 02:54:17;;;;;;;;;;;2.10;99.90;;;;;;8402577;28;19939;-70
2022/02/27 02:58:18;;;;;;;;;;;2.10;99.90;;;;;;8407715;28;19932;-70
2022/02/27 03:02:20;;;;;;;;;;;2.10;99.90;;;;;;8409175;28;19931;-70
2022/02/27 03:06:22;;;;;;;;;;;2.00;99.90;;;;;;8403650;28;19959;-70
2022/02/27 03:10:24;;;;;;;;;;;2.00;99.90;;;;;;8407629;28;19928;-70
2022/02/27 03:14:25;;;;;;;;;;;2.00;99.90;;;;;;8392609;28;19982;-70
2022/02/27 03:18:27;;;;;;;;;;;1.90;99.90;;;;;;8399368;28;20584;-70
2022/02/27 03:22:28;;;;;;;;;;;1.90;99.90;;;;;;8412721;28;19924;-70
2022/02/27 03:26:30;;;;;;;;;;;1.80;99.90;;;;;;8405624;28;19947;-70
2022/02/27 03:30:36;;;;;;;;;;;1.90;99.90;;;;;;8396704;28;19951;-70
2022/02/27 03:34:38;;;;;;;;;;;1.80;99.90;;;;;;8402041;28;19932;-70
2022/02/27 03:38:39;;;;;;;;;;;1.80;99.90;;;;;;8408064;28;19924;-70
2022/02/27 03:42:41;;;;;;;;;;;1.80;99.90;;;;;;8405895;28;19925;-70
2022/02/27 03:46:43;;;;;;;;;;;1.80;99.90;;;;;;8390867;28;20303;-70
2022/02/27 03:50:44;;;;;;;;;;;1.80;99.90;;;;;;8399420;28;19939;-70
2022/02/27 03:54:46;;;;;;;;;;;1.80;99.90;;;;;;8404137;28;19932;-70
2022/02/27 03:58:50;;;;;;;;;;;1.80;99.90;;;;;;8411962;28;20003;-70
2022/02/27 04:02:52;;;;;;;;;;;1.80;99.90;;;;;;8399223;28;20283;-70
2022/02/27 04:06:54;;;;;;;;;;;1.70;99.90;;;;;;8388535;28;20016;-70
2022/02/27 04:10:55;;;;;;;;;;;1.70;99.90;;;;;;8408927;28;19924;-70
2022/02/27 04:14:57;;;;;;;;;;;1.70;99.90;;;;;;8402484;28;19928;-70
2022/02/27 04:18:58;;;;;;;;;;;1.70;99.90;;;;;;8412152;28;19931;-70
2022/02/27 04:23:00;;;;;;;;;;;1.70;99.90;;;;;;8411342;28;19924;-70
2022/02/27 04:27:02;;;;;;;;;;;1.60;99.90;;;;;;8400112;28;20275;-70
2022/02/27 04:31:04;;;;;;;;;;;1.60;99.90;;;;;;8399908;28;19928;-70
2022/02/27 04:35:05;;;;;;;;;;;1.50;99.90;;;;;;8388983;28;19924;-70
2022/02/27 04:39:07;;;;;;;;;;;1.50;99.90;;;;;;8399881;28;19924;-70
2022/02/27 04:43:09;;;;;;;;;;;1.30;99.90;;;;;;8402038;28;19959;-71
2022/02/27 04:47:11;;;;;;;;;;;1.20;99.90;;;;;;8407490;28;19929;-70
2022/02/27 04:51:12;;;;;;;;;;;1.10;99.90;;;;;;8405585;28;19935;-70
2022/02/27 04:55:14;;;;;;;;;;;1.00;99.90;;;;;;8393022;28;19928;-70
2022/02/27 04:59:16;;;;;;;;;;;1.10;99.90;;;;;;8406562;28;19924;-70
2022/02/27 05:03:17;;;;;;;;;;;1.10;99.90;;;;;;8383291;28;19930;-70
2022/02/27 05:07:19;;;;;;;;;;;1.10;99.90;;;;;;8408208;28;19958;-70
2022/02/27 05:11:21;;;;;;;;;;;1.10;99.90;;;;;;8379380;28;20283;-70
2022/02/27 05:15:22;;;;;;;;;;;1.10;99.90;;;;;;8406924;28;20423;-70
2022/02/27 05:19:24;;;;;;;;;;;1.10;99.90;;;;;;8401999;28;20261;-70
2022/02/27 05:23:26;;;;;;;;;;;1.10;99.90;;;;;;8411820;28;19931;-70
2022/02/27 05:27:27;;;;;;;;;;;1.10;99.90;;;;;;8387372;28;19924;-70
2022/02/27 05:31:29;;;;;;;;;;;1.00;99.90;;;;;;8391870;28;19924;-70
2022/02/27 05:35:30;;;;;;;;;;;1.00;99.90;;;;;;8405487;28;20261;-70
2022/02/27 05:39:32;;;;;;;;;;;1.00;99.90;;;;;;8409988;28;19924;-70
2022/02/27 05:43:34;;;;;;;;;;;0.90;99.90;;;;;;8407582;28;19955;-70
2022/02/27 05:47:35;;;;;;;;;;;0.90;99.90;;;;;;8402988;28;19925;-70
2022/02/27 05:51:37;;;;;;;;;;;0.80;99.90;;;;;;8405573;28;19984;-70
2022/02/27 05:55:39;;;;;;;;;;;0.80;99.90;;;;;;8401520;28;20277;-70
2022/02/27 05:59:40;;;;;;;;;;;0.80;99.90;;;;;;8387454;28;19932;-70
2022/02/27 06:03:42;;;;;;;;;;;0.80;99.90;;;;;;8411257;28;20398;-70
2022/02/27 06:07:44;;;;;;;;;;;0.90;99.90;;;;;;8392778;28;20398;-70
2022/02/27 06:11:45;;;;;;;;;;;0.90;99.90;;;;;;8392923;28;20259;-70
2022/02/27 06:15:47;;;;;;;;;;;0.90;99.90;;;;;;8388295;28;19931;-70
2022/02/27 06:19:49;;;;;;;;;;;0.90;99.90;;;;;;8400509;28;19932;-70
2022/02/27 06:23:51;;;;;;;;;;;1.00;99.90;;;;;;8397843;28;20304;-70
2022/02/27 06:27:53;;;;;;;;;;;1.00;99.90;;;;;;8413815;28;20375;-70
2022/02/27 06:31:54;;;;;;;;;;;1.00;99.90;;;;;;8387941;28;19928;-70
2022/02/27 06:35:56;;;;;;;;;;;1.00;99.90;;;;;;8400777;28;20010;-70
2022/02/27 06:39:59;;;;;;;;;;;1.00;99.90;;;;;;8408266;28;19924;-70
2022/02/27 06:44:00;;;;;;;;;;;1.00;99.90;;;;;;8388474;28;20365;-70
2022/02/27 06:48:02;;;;;;;;;;;1.10;99.90;;;;;;8387624;28;19924;-70
2022/02/27 06:52:04;;;;;;;;;;;1.20;99.90;;;;;;8390457;28;19931;-70
2022/02/27 06:56:06;;;;;;;;;;;1.20;99.90;;;;;;8390640;28;19928;-70
2022/02/27 07:00:09;;;;;;;;;;;1.30;99.90;;;;;;8414886;28;20375;-70
2022/02/27 07:04:10;;;;;;;;;;;1.30;99.90;;;;;;8401560;28;19939;-70
2022/02/27 07:08:12;;;;;;;;;;;1.40;99.90;;;;;;8400592;28;19935;-70
2022/02/27 07:12:14;;;;;;;;;;;1.50;99.90;;;;;;8395364;28;19924;-70
2022/02/27 07:16:15;;;;;;;;;;;1.70;99.90;;;;;;8407478;28;19931;-70
2022/02/27 07:20:17;;;;;;;;;;;1.80;99.90;;;;;;8400701;28;19924;-70
2022/02/27 07:24:19;;;;;;;;;;;2.00;99.90;;;;;;8382226;28;20391;-70
2022/02/27 07:28:21;;;;;;;;;;;2.10;99.90;;;;;;8404524;28;19924;-70
2022/02/27 07:32:22;;;;;;;;;;;2.20;99.90;;;;;;8411914;28;19977;-70
2022/02/27 07:36:24;;;;;;;;;;;2.40;99.90;;;;;;8404229;28;19930;-70
2022/02/27 07:40:25;;;;;;;;;;;2.50;99.90;;;;;;8385961;28;19925;-70
2022/02/27 07:44:28;;;;;;;;;;;2.60;99.90;;;;;;8401685;28;19932;-70
2022/02/27 07:48:29;;;;;;;;;;;2.70;99.90;;;;;;8397086;28;20420;-70
2022/02/27 07:52:31;;;;;;;;;;;2.90;99.90;;;;;;8395866;28;19939;-70
2022/02/27 07:56:34;;;;;;;;;;;3.00;99.90;;;;;;8413299;28;19924;-70
2022/02/27 08:00:35;;;;;;;;;;;3.10;99.90;;;;;;8404683;28;19952;-70
2022/02/27 08:04:37;;;;;;;;;;;3.20;99.90;;;;;;8409716;28;19924;-70
2022/02/27 08:08:39;;;;;;;;;;;3.40;99.90;;;;;;8400830;28;20167;-70
2022/02/27 08:12:45;;;;;;;;;;;3.50;99.90;;;;;;8387663;28;19928;-70
2022/02/27 08:16:46;;;;;;;;;;;3.60;99.90;;;;;;8380677;28;20344;-70
2022/02/27 08:20:48;;;;;;;;;;;3.70;99.90;;;;;;8402599;28;19928;-70
2022/02/27 08:24:50;;;;;;;;;;;3.90;99.90;;;;;;8400463;28;19932;-70
2022/02/27 08:28:51;;;;;;;;;;;4.00;99.90;;;;;;8410398;28;19932;-70
2022/02/27 08:32:53;;;;;;;;;;;4.10;99.90;;;;;;8402258;28;19931;-70
2022/02/27 08:36:55;;;;;;;;;;;4.30;99.90;;;;;;8409001;28;19935;-70
2022/02/27 08:40:56;;;;;;;;;;;4.40;99.90;;;;;;8392412;28;19932;-70
2022/02/27 08:44:58;;;;;;;;;;;4.60;99.90;;;;;;8383636;28;19955;-70
2022/02/27 08:49:00;;;;;;;;;;;4.70;99.90;;;;;;8383369;28;19933;-70
2022/02/27 08:53:01;;;;;;;;;;;4.80;99.90;;;;;;8402629;28;19924;-70
2022/02/27 08:57:03;;;;;;;;;;;5.00;99.90;;;;;;8409916;28;20010;-70
2022/02/27 09:01:05;;;;;;;;;;;5.10;99.90;;;;;;8410088;28;19932;-70
2022/02/27 09:05:07;;;;;;;;;;;5.20;99.90;;;;;;8400458;28;19928;-70
2022/02/27 09:09:09;;;;;;;;;;;5.30;99.90;;;;;;8391023;28;20388;-69
2022/02/27 09:13:10;;;;;;;;;;;5.40;99.90;;;;;;8407978;28;19925;-70
2022/02/27 09:17:13;;;;;;;;;;;5.50;99.90;;;;;;8405250;28;19925;-70
2022/02/27 09:21:15;;;;;;;;;;;5.60;99.90;;;;;;8384474;28;20331;-70
2022/02/27 09:25:17;;;;;;;;;;;5.70;99.90;;;;;;8386958;28;19931;-70
2022/02/27 09:29:38;;;;;;;;;;;5.90;99.90;;;;;;8406884;28;20367;-70
2022/02/27 09:33:40;;;;;;;;;;;6.00;99.90;;;;;;8406900;28;19924;-70
2022/02/27 09:37:43;;;;;;;;;;;6.10;99.90;;;;;;8408896;28;19954;-70
2022/02/27 09:41:45;;;;;;;;;;;6.20;99.90;;;;;;8406271;28;20235;-70
2022/02/27 09:45:47;;;;;;;;;;;6.30;99.90;;;;;;8413283;28;20347;-70
2022/02/27 09:49:49;;;;;;;;;;;6.50;99.90;;;;;;8404156;28;20388;-70
2022/02/27 09:53:52;;;;;;;;;;;6.80;99.90;;;;;;8412439;28;19931;-70
2022/02/27 09:57:54;;;;;;;;;;;7.10;99.90;;;;;;8415694;28;20363;-70
2022/02/27 10:02:00;;;;;;;;;;;7.40;99.90;;;;;;8416642;28;19928;-70
2022/02/27 10:06:05;;;;;;;;;;;7.70;99.90;;;;;;8410800;28;20322;-70
2022/02/27 10:10:07;;;;;;;;;;;8.00;99.90;;;;;;8396440;28;20011;-70
2022/02/27 10:14:09;;;;;;;;;;;8.30;99.90;;;;;;8401376;28;19928;-70
2022/02/27 10:18:15;;;;;;;;;;;8.50;99.90;;;;;;8414660;28;19931;-70
2022/02/27 10:22:16;;;;;;;;;;;8.80;99.90;;;;;;8408412;28;19925;-70
2022/02/27 10:26:22;;;;;;;;;;;9.10;99.90;;;;;;8413913;28;19924;-70
2022/02/27 10:30:29;;;;;;;;;;;9.20;99.90;;;;;;8413421;28;20295;-70
2022/02/27 10:34:31;;;;;;;;;;;9.40;99.90;;;;;;8394619;28;20015;-70
2022/02/27 10:42:45;;;;;;;;;;;10.20;99.90;;;;;;8369381;28;20059;-70
2022/02/27 10:46:46;;;;;;;5.97;2.92;;;10.30;99.90;;;;;;8368435;28;19935;-70
2022/02/27 10:50:48;;;;;;;;;;;10.40;99.90;;;;;;8376674;28;20045;-70
2022/02/27 10:54:51;;;;;;;;;;;10.50;99.90;;;;;;8374240;28;20295;-70
2022/02/27 10:58:52;;;;;;;;;;;10.70;99.90;;;;;;8368552;28;19920;-70
2022/02/27 11:02:55;;;;;;;;;;;11.10;99.90;;;;;;8375127;28;19921;-70
2022/02/27 11:06:57;;;;;;;;;;;11.40;99.90;;;;;;8372207;28;19999;-70
2022/02/27 11:11:00;;;;;;;;;;;11.80;99.90;;;;;;8362922;28;19920;-70
2022/02/27 11:15:02;;;;;;;;;;;12.30;99.90;;;;;;8370131;28;19932;-70
2022/02/27 11:19:03;;;;;;;;;;;12.40;99.90;;;;;;8370985;28;19920;-70
2022/02/27 11:23:05;;;;;;;;;;;12.30;99.90;;;;;;8371888;28;20015;-70
2022/02/27 11:27:07;;;;;;;;;;;12.40;99.90;;;;;;8361032;28;19928;-70
2022/02/27 11:31:12;;;;;;;;;;;12.60;99.90;;;;;;8370940;28;19932;-70
2022/02/27 11:35:32;;;;;;;;;;;12.60;99.90;;;;;;8376528;28;19932;-70
2022/02/27 11:43:57;;;;;;;7.25;3.78;;;13.50;99.90;;;;;;8371582;28;19932;-70
2022/02/27 11:48:00;;;;;;;;;;;13.70;99.90;;;;;;8374251;28;20087;-70
2022/02/27 11:52:14;;;;;;;;;;;13.90;99.90;;;;;;8363587;28;19924;-70
2022/02/27 11:56:27;;;;;;;;;;;14.00;99.90;;;;;;8372338;28;19924;-70
2022/02/27 12:00:39;;;;;;;;;;;14.40;99.90;;;;;;8375721;28;19921;-70
2022/02/27 12:04:47;;;;;;;;;;;14.30;99.90;;;;;;8375461;28;19935;-70
2022/02/27 12:08:53;;;;;;;;;;;14.00;99.90;;;;;;8372814;28;19920;-70
2022/02/27 12:12:55;;;;;;;;;;;14.20;99.90;;;;;;8370826;28;20361;-69
2022/02/27 12:16:57;;;;;;;;;;;14.60;99.90;;;;;;8374501;28;19932;-70
2022/02/27 12:20:59;;;;;;;;;;;15.00;99.90;;;;;;8362353;28;19920;-70
2022/02/27 12:25:04;;;;;;;;;;;15.10;99.90;;;;;;8369210;28;19973;-70
2022/02/27 12:29:06;;;;;;;;;;;15.10;99.90;;;;;;8364189;28;19924;-70
2022/02/27 12:33:08;;;;;;;;;;;15.20;99.90;;;;;;8360673;28;19921;-70
2022/02/27 12:37:11;;;;;;;;;;;15.30;99.90;;;;;;8374418;28;19920;-70
2022/02/27 12:41:16;;;;;;;;;;;15.40;99.90;;;;;;8402390;28;19921;-70
2022/02/27 12:45:26;;;;;;;;;;;15.40;99.90;;;;;;8394936;28;19921;-70
2022/02/27 12:53:56;;;;;;;;;;;15.10;99.90;;;;;;8395264;28;19943;-70
2022/02/27 12:58:02;;;;;;;;;;;14.80;99.90;;;;;;8402714;28;19935;-70
2022/02/27 13:02:06;;;;;;;;;;;15.10;99.90;;;;;;8387518;28;19920;-70
2022/02/27 13:06:07;;;;;;;;;;;15.50;97.10;;;;;;8411173;28;19971;-70
2022/02/27 13:10:20;;;;;;;6.95;3.10;;;15.70;99.90;;;;;;8405361;28;20498;-70
2022/02/27 13:14:23;;;;;;;;;;;15.30;99.90;;;;;;8380624;28;20048;-70
2022/02/27 13:18:25;;;;;;;;;;;14.90;99.90;;;;;;8406586;28;19920;-69
2022/02/27 13:22:27;;;;;;;;;;;14.30;97.90;;;;;;8397832;28;19920;-70
2022/02/27 13:26:30;;;;;;;;;;;13.60;96.80;;;;;;8395461;28;19944;-69
2022/02/27 13:30:32;;;;;;;;;;;13.20;96.80;;;;;;8380247;28;19946;-70
2022/02/27 13:34:35;;;;;;;;;;;12.90;96.20;;;;;;8399494;28;19932;-70
2022/02/27 13:38:37;;;;;;;;;;;12.60;94.80;;;;;;8377910;28;20623;-69
2022/02/27 13:42:39;;;;;;;;;;;12.50;94.90;;;;;;8400674;28;19928;-69
2022/02/27 13:46:49;;;;;;;;;;;12.40;94.80;;;;;;8414175;28;19968;-70
2022/02/27 13:50:51;;;;;;;;;;;12.30;94.80;;;;;;8408599;28;19927;-69
2022/02/27 13:54:54;;;;;;;;;;;12.40;94.90;;;;;;8411548;28;19920;-69
2022/02/27 13:59:12;;;;;;;;;;;12.30;94.60;;;;;;8390865;28;19928;-69
2022/02/27 14:03:14;;;;;;;;;;;12.30;95.00;;;;;;8406700;28;19920;-69
2022/02/27 14:07:18;;;;;;;;;;;12.50;95.50;;;;;;8404612;28;19923;-70
2022/02/27 14:11:23;;;;;;;;;;;12.50;93.90;;;;;;8402289;28;19920;-70
2022/02/27 14:15:29;;;;;;;;;;;12.40;94.40;;;;;;8380205;28;19981;-70
2022/02/27 14:19:31;;;;;;;;;;;12.30;92.20;;;;;;8403074;28;19999;-70
2022/02/27 14:23:33;;;;;;;;;;;12.10;92.30;;;;;;8416906;28;20236;-69
2022/02/27 14:27:36;;;;;;;;;;;12.10;91.90;;;;;;8400653;28;20319;-70
2022/02/27 14:31:38;;;;;;;;;;;12.00;92.60;;;;;;8412087;28;19935;-70
2022/02/27 14:35:41;;;;;;;;;;;12.00;92.30;;;;;;8407471;28;19920;-70
2022/02/27 14:39:43;;;;;;;;;;;12.20;91.70;;;;;;8408997;28;19927;-70
2022/02/27 14:43:44;;;;;;;;;;;12.80;92.30;;;;;;8392407;28;19939;-70
2022/02/27 14:47:47;;;;;;;;;;;13.90;95.30;;;;;;8392050;28;19935;-70
2022/02/27 14:51:48;;;;;;;;;;;15.10;93.10;;;;;;8404746;28;19935;-70
2022/02/27 14:55:50;;;;;;;;;;;15.70;94.80;;;;;;8390446;28;19927;-70
2022/02/27 14:59:51;;;;;;;;;;;16.40;97.60;;;;;;8413528;28;19939;-70
2022/02/27 15:03:53;;;;;;;;;;;17.00;96.70;;;;;;8379909;28;19928;-70
2022/02/27 15:07:55;;;;;;;;;;;17.60;97.30;;;;;;8398481;28;19924;-70
2022/02/27 15:11:57;;;;;;;;;;;17.70;92.90;;;;;;8402906;28;19920;-70
2022/02/27 15:15:59;;;;;;;;;;;18.00;97.20;;;;;;8398496;28;19931;-70
2022/02/27 15:20:02;;;;;;;;;;;17.80;92.90;;;;;;8404753;28;19969;-70
2022/02/27 15:24:04;;;;;;;;;;;17.20;92.30;;;;;;8381274;28;20360;-70
2022/02/27 15:28:06;;;;;;;;;;;17.00;91.00;;;;;;8387586;28;19932;-70
2022/02/27 15:32:08;;;;;;;;;;;16.80;90.90;;;;;;8384966;28;19931;-69
2022/02/27 15:36:10;;;;;;;;;;;16.50;91.80;;;;;;8405107;28;19927;-70
2022/02/27 15:40:12;;;;;;;;;;;16.50;91.70;;;;;;8392749;28;19927;-70
2022/02/27 15:44:13;;;;;;;;;;;16.50;90.60;;;;;;8384326;28;20276;-70
2022/02/27 15:48:15;;;;;;;;;;;16.00;89.40;;;;;;8406444;28;20340;-70
2022/02/27 15:52:17;;;;;;;;;;;16.00;91.20;;;;;;8404078;28;19927;-70
2022/02/27 15:56:18;;;;;;;;;;;16.30;89.10;;;;;;8404353;28;19931;-70
2022/02/27 16:00:21;;;;;;;;;;;16.50;90.10;;;;;;8405308;28;20350;-69
2022/02/27 16:04:23;;;;;;;;;;;16.50;86.60;;;;;;8408895;28;19928;-70
2022/02/27 16:08:24;;;;;;;;;;;16.30;85.30;;;;;;8389641;28;19931;-70
2022/02/27 16:12:26;;;;;;;;;;;15.70;88.00;;;;;;8404610;28;19931;-70
2022/02/27 16:16:28;;;;;;;;;;;15.30;87.50;;;;;;8403468;28;19928;-70
2022/02/27 16:20:29;;;;;;;;;;;15.10;88.50;;;;;;8406642;28;19920;-70
2022/02/27 16:24:31;;;;;;;;;;;14.90;88.20;;;;;;8408716;28;20384;-70
2022/02/27 16:28:33;;;;;;;;;;;14.60;88.60;;;;;;8402627;28;19921;-70
2022/02/27 16:32:34;;;;;;;;;;;14.30;88.40;;;;;;8408338;28;21163;-70
2022/02/27 16:36:36;;;;;;;;;;;14.20;88.40;;;;;;8380545;28;19920;-70
2022/02/27 16:40:38;;;;;;;;;;;14.00;85.20;;;;;;8389131;28;19920;-70
2022/02/27 16:44:39;;;;;;;;;;;13.60;86.90;;;;;;8408715;28;19924;-70
2022/02/27 16:48:41;;;;;;;;;;;13.10;86.60;;;;;;8405376;28;19942;-69
2022/02/27 16:52:43;;;;;;;;;;;12.70;86.80;;;;;;8383645;28;19935;-70
2022/02/27 16:56:45;;;;;;;;;;;12.30;86.70;;;;;;8384960;28;19928;-70
2022/02/27 17:00:47;;;;;;;;;;;12.00;87.00;;;;;;8365929;28;19931;-70
2022/02/27 17:04:48;;;;;;;;;;;11.70;86.80;;;;;;8376285;28;20339;-70
2022/02/27 17:08:51;;;;;;;;;;;11.30;87.40;;;;;;8383785;28;19939;-70
2022/02/27 17:12:53;;;;;;;;;;;11.10;87.30;;;;;;8381877;28;19970;-70
2022/02/27 17:16:55;;;;;;;;;;;10.90;87.90;;;;;;8385508;28;19943;-70
2022/02/27 17:20:57;;;;;;;;;;;10.70;87.70;;;;;;8390252;28;19924;-70
2022/02/27 17:24:58;;;;;;;;;;;10.50;87.80;;;;;;8389995;28;19928;-70
2022/02/27 17:29:00;;;;;;;;;;;10.30;88.20;;;;;;8371666;28;19974;-70
2022/02/27 17:33:02;;;;;;;;;;;10.20;88.40;;;;;;8385736;28;19923;-70
2022/02/27 17:37:04;;;;;;;;;;;10.10;88.20;;;;;;8389859;28;19927;-70
2022/02/27 17:41:08;;;;;;;;;;;10.00;88.80;;;;;;8390067;28;19920;-70
2022/02/27 17:45:11;;;;;;;;;;;9.90;90.00;;;;;;8389276;28;19924;-70
2022/02/27 17:49:13;;;;;;;;;;;9.80;89.40;;;;;;8372647;28;20360;-70
2022/02/27 17:53:15;;;;;;;;;;;9.70;89.60;;;;;;8389194;28;19940;-70
2022/02/27 17:57:16;;;;;;;;;;;9.60;89.90;;;;;;8390904;28;19936;-70
2022/02/27 18:01:18;;;;;;;;;;;9.50;90.00;;;;;;8391720;28;20313;-70
2022/02/27 18:05:20;;;;;;;;;;;9.40;90.00;;;;;;8386656;28;20376;-70
2022/02/27 18:09:21;;;;;;;;;;;9.30;90.10;;;;;;8388334;28;20364;-70
2022/02/27 18:13:23;;;;;;;;;;;9.20;90.20;;;;;;8369748;28;20241;-70
2022/02/27 18:17:28;;;;;;;;;;;9.10;90.20;;;;;;8389242;28;19943;-70
2022/02/27 18:21:33;;;;;;;;;;;8.90;90.30;;;;;;8392491;28;20295;-70
2022/02/27 18:25:35;;;;;;;;;;;8.80;90.30;;;;;;8392246;28;19943;-70
2022/02/27 18:29:37;;;;;;;;;;;8.80;90.40;;;;;;8372414;28;19967;-69
2022/02/27 18:33:39;;;;;;;;;;;8.70;90.40;;;;;;8368302;28;19994;-70
2022/02/27 18:37:41;;;;;;;;;;;8.60;90.50;;;;;;8387708;28;19969;-70
2022/02/27 18:41:43;;;;;;;;;;;8.50;90.50;;;;;;8387806;28;19925;-70
2022/02/27 18:45:45;;;;;;;;;;;8.50;90.50;;;;;;8390654;28;19943;-70
2022/02/27 18:49:46;;;;;;;;;;;8.40;90.60;;;;;;8388473;28;19920;-70
2022/02/27 18:53:48;;;;;;;;;;;8.30;90.70;;;;;;8387557;28;20273;-70
2022/02/27 18:57:49;;;;;;;;;;;8.30;90.70;;;;;;8388326;28;19920;-70
2022/02/27 19:01:51;;;;;;;;;;;8.30;90.80;;;;;;8392220;28;19924;-70
2022/02/27 19:05:53;;;;;;;;;;;8.20;90.80;;;;;;8380951;28;19920;-70
2022/02/27 19:09:54;;;;;;;;;;;8.10;90.70;;;;;;8384336;28;20332;-69
2022/02/27 19:13:56;;;;;;;;;;;8.10;90.80;;;;;;8385372;28;23137;-70
2022/02/27 19:17:58;;;;;;;;;;;8.00;90.70;;;;;;8386890;28;19931;-70
2022/02/27 19:21:59;;;;;;;;;;;8.00;90.70;;;;;;8385939;28;19924;-70
2022/02/27 19:26:01;;;;;;;;;;;7.90;90.70;;;;;;8385075;28;19928;-70
2022/02/27 19:30:05;;;;;;;;;;;7.90;90.80;;;;;;8385725;28;19952;-70
2022/02/27 19:34:07;;;;;;;;;;;7.80;90.70;;;;;;8376017;28;19959;-70
2022/02/27 19:38:09;;;;;;;;;;;7.70;90.80;;;;;;8387594;28;19924;-70
2022/02/27 19:42:10;;;;;;;;;;;7.60;90.80;;;;;;8383928;28;19920;-69
2022/02/27 19:46:13;;;;;;;;;;;7.60;90.90;;;;;;8372492;28;19921;-70
2022/02/27 19:50:15;;;;;;;;;;;7.50;91.00;;;;;;8384329;28;19931;-70
2022/02/27 19:54:16;;;;;;;;;;;7.40;91.00;;;;;;8377254;28;19920;-70
2022/02/27 19:58:18;;;;;;;;;;;7.30;91.10;;;;;;8384237;28;19932;-70
2022/02/27 20:02:20;;;;;;;;;;;7.30;91.10;;;;;;8367467;28;19931;-70
2022/02/27 20:06:21;;;;;;;;;;;7.20;91.40;;;;;;8383083;28;19928;-70
2022/02/27 20:10:42;;;;;;;;;;;7.20;91.30;;;;;;8383261;28;19928;-70
2022/02/27 20:14:48;;;;;;;;;;;7.20;91.50;;;;;;8365592;28;19920;-70
2022/02/27 20:18:49;;;;;;;;;;;7.10;91.10;;;;;;8364737;28;20333;-70
2022/02/27 20:22:51;;;;;;;;;;;7.10;91.40;;;;;;8382811;28;19939;-70
2022/02/27 20:26:55;;;;;;;;;;;7.10;91.60;;;;;;8383311;28;19935;-70
2022/02/27 20:30:58;;;;;;;;;;;7.10;91.40;;;;;;8385192;28;19925;-69
2022/02/27 20:35:00;;;;;;;;;;;7.00;91.30;;;;;;8377588;28;20389;-70
2022/02/27 20:39:07;;;;;;;;;;;7.00;91.90;;;;;;8379130;28;19967;-70
2022/02/27 20:43:09;;;;;;;;;;;6.90;91.80;;;;;;8364490;28;19920;-70
2022/02/27 20:47:10;;;;;;;;;;;6.90;91.90;;;;;;8382180;28;19932;-70
2022/02/27 20:51:12;;;;;;;;;;;6.90;91.70;;;;;;8384270;28;19921;-69
2022/02/27 20:55:16;;;;;;;;;;;6.80;91.70;;;;;;8395220;28;19956;-70
2022/02/27 20:59:17;;;;;;;;;;;6.80;91.50;;;;;;8395902;28;20027;-70
2022/02/27 21:03:19;;;;;;;;;;;6.70;92.00;;;;;;8369326;28;19928;-70
2022/02/27 21:07:21;;;;;;;;;;;6.70;91.60;;;;;;8394976;28;19972;-70
2022/02/27 21:11:22;;;;;;;;;;;6.60;91.80;;;;;;8393864;28;19924;-70
2022/02/27 21:15:24;;;;;;;;;;;6.60;91.50;;;;;;8393667;28;19932;-70
2022/02/27 21:19:26;;;;;;;;;;;6.50;91.60;;;;;;8375414;28;19927;-70
2022/02/27 21:23:27;;;;;;;;;;;6.40;91.80;;;;;;8394147;28;20026;-70
2022/02/27 21:27:30;;;;;;;;;;;6.40;91.50;;;;;;8395278;28;19924;-70
2022/02/27 21:31:31;;;;;;;;;;;6.30;91.50;;;;;;8395136;28;19920;-70
2022/02/27 21:35:33;;;;;;;;;;;6.20;91.40;;;;;;8371634;28;20303;-70
2022/02/27 21:39:35;;;;;;;;;;;6.10;91.40;;;;;;8389600;28;20291;-70
2022/02/27 21:43:36;;;;;;;;;;;6.00;91.50;;;;;;8390663;28;19929;-70
2022/02/27 21:47:40;;;;;;;;;;;5.90;91.50;;;;;;8393471;28;20402;-70
2022/02/27 21:51:43;;;;;;;;;;;5.80;91.70;;;;;;8394670;28;19965;-70
2022/02/27 21:55:45;;;;;;;;;;;5.70;91.70;;;;;;8374460;28;19928;-70
2022/02/27 21:59:47;;;;;;;;;;;5.70;91.80;;;;;;8392759;28;19936;-70
2022/02/27 22:03:49;;;;;;;;;;;5.60;92.10;;;;;;8401417;28;20311;-70
2022/02/27 22:07:50;;;;;;;;;;;5.60;91.60;;;;;;8392619;28;19928;-70
2022/02/27 22:11:52;;;;;;;;;;;5.50;91.60;;;;;;8400007;28;20276;-70
2022/02/27 22:15:57;;;;;;;;;;;5.40;91.60;;;;;;8402145;28;19928;-70
2022/02/27 22:19:59;;;;;;;;;;;5.40;91.60;;;;;;8407171;28;19924;-70
2022/02/27 22:24:00;;;;;;;;;;;5.30;91.80;;;;;;8401587;28;19955;-70
2022/02/27 22:28:02;;;;;;;;;;;5.30;91.80;;;;;;8405111;28;19924;-70
2022/02/27 22:32:04;;;;;;;;;;;5.20;91.70;;;;;;8403199;28;20288;-69
2022/02/27 22:36:06;;;;;;;;;;;5.20;91.60;;;;;;8379680;28;19932;-70
2022/02/27 22:40:10;;;;;;;;;;;5.10;91.70;;;;;;8400200;28;20008;-70
2022/02/27 22:44:12;;;;;;;;;;;5.00;91.60;;;;;;8391291;28;19931;-70
2022/02/27 22:48:14;;;;;;;;;;;5.00;91.70;;;;;;8372106;28;19968;-70
2022/02/27 22:52:16;;;;;;;;;;;4.90;91.60;;;;;;8402179;28;19928;-69
2022/02/27 22:56:17;;;;;;;;;;;4.80;91.80;;;;;;8406719;28;19962;-70
2022/02/27 23:00:38;;;;;;;;;;;4.70;92.00;;;;;;8399962;28;19960;-70
2022/02/27 23:09:03;;;;;;;;;;;4.70;92.40;;;;;;8410811;28;19926;-70
2022/02/27 23:13:06;;;;;;;;;;;4.60;92.90;;;;;;8410265;28;20423;-70
2022/02/27 23:17:08;;;;;;;;;;;4.60;93.20;;;;;;8409829;28;19924;-69
2022/02/27 23:21:10;;;;;;;;;;;4.60;92.70;;;;;;8397368;28;19920;-70
2022/02/27 23:25:12;;;;;;;;;;;4.50;92.70;;;;;;8384005;28;19920;-70
2022/02/27 23:29:13;;;;;;;;;;;4.50;93.30;;;;;;8407075;28;19967;-70
2022/02/27 23:33:16;;;;;;;;;;;4.50;92.70;;;;;;8405574;28;20351;-70
2022/02/27 23:37:17;;;;;;;;;;;4.40;92.80;;;;;;8380124;28;20326;-70
2022/02/27 23:41:19;;;;;;;;;;;4.40;92.60;;;;;;8404293;28;19924;-69
2022/02/27 23:45:23;;;;;;;;;;;4.40;92.60;;;;;;8399801;28;19928;-70
2022/02/27 23:49:25;;;;;;;;;;;4.30;93.10;;;;;;8399600;28;19928;-70
2022/02/27 23:53:33;;;;;;;;;;;4.30;93.10;;;;;;8401550;28;19920;-70
2022/02/27 23:57:34;;;;;;;;;;;4.30;92.50;;;;;;8391805;28;20299;-70
